Johnstown, Pennsylvania
Current Conditions -  °F | °C
As of 8:09 PM on Wednesday 26 Nov 2014 (Local Time) from KJST Reporting Station
Moderate Fog Moderate Fog  
Wind Chill: 24°   Ceiling: 200
Heat Index: 30°   Visibility: 0.25mi
Dew Point: 28°   Wind: 6mph
Humidity: 92%   Direction: 300°WNW
Pressure: 29.92"   Gusts: NA
Location:  40.33°N, 78.92°W
Report Text: KJST 270109Z AUTO 30005KT 1/4SM FZFG VV002 M01/M02 A2992 RMK AO2 T10111022
Loading
Personal Weather Stations






























Interactive Weather Map New forecast layout! Learn more

10-Day Weather Forecast

Advertisements
Track Severe Weather on mobile